Time;durP1;ratioP1;P1;durP2;ratioP2;P2;SDS_P1;SDS_P2;PMS_P1;PMS_P2;Temp;Humidity;BMP_temperature;BMP_pressure;BME280_temperature;BME280_humidity;BME280_pressure;Samples;Min_cycle;Max_cycle;Signal;HPM_P1;HPM_P2
2021/12/31 00:01:42;;;;;;;67.45;31.33;;;6.00;99.90;;;;;;5071620;28;20051;-74
2021/12/31 00:04:07;;;;;;;74.38;34.38;;;6.10;99.90;;;;;;5071769;28;20032;-74
2021/12/31 00:06:34;;;;;;;67.05;31.50;;;6.20;99.90;;;;;;5071630;28;20036;-75
2021/12/31 00:08:59;;;;;;;79.90;35.05;;;6.30;99.90;;;;;;5070064;28;20024;-74
2021/12/31 00:11:25;;;;;;;75.78;37.03;;;6.40;99.90;;;;;;5071486;28;20032;-75
2021/12/31 00:13:50;;;;;;;66.22;31.17;;;6.50;99.90;;;;;;5070295;28;20521;-75
2021/12/31 00:16:16;;;;;;;67.75;32.80;;;6.50;99.90;;;;;;5071599;28;20095;-74
2021/12/31 00:18:42;;;;;;;74.72;34.42;;;6.60;99.90;;;;;;5071367;28;20028;-74
2021/12/31 00:21:07;;;;;;;75.20;32.33;;;6.50;99.90;;;;;;5071607;28;20012;-74
2021/12/31 00:23:33;;;;;;;60.22;30.27;;;6.60;99.90;;;;;;5071292;28;20103;-74
2021/12/31 00:25:59;;;;;;;51.17;24.88;;;6.70;99.90;;;;;;5071425;28;20494;-74
2021/12/31 00:28:24;;;;;;;70.88;32.92;;;6.70;99.90;;;;;;5070053;28;20043;-74
2021/12/31 00:30:54;;;;;;;61.38;29.17;;;6.70;99.90;;;;;;5070843;28;20039;-73
2021/12/31 00:33:24;;;;;;;74.55;33.55;;;6.80;99.90;;;;;;5071209;28;20026;-74
2021/12/31 00:35:49;;;;;;;98.60;45.65;;;6.70;99.90;;;;;;5069814;28;20029;-74
2021/12/31 00:38:15;;;;;;;90.53;40.67;;;6.80;99.90;;;;;;5071607;28;20505;-74
2021/12/31 00:40:41;;;;;;;64.80;32.20;;;6.80;99.90;;;;;;5070136;28;20496;-74
2021/12/31 00:43:07;;;;;;;80.25;36.40;;;6.80;99.90;;;;;;5071226;28;20067;-74
2021/12/31 00:45:37;;;;;;;67.78;33.40;;;6.80;99.90;;;;;;5069536;28;20342;-74
2021/12/31 00:48:03;;;;;;;79.35;36.30;;;6.90;99.90;;;;;;5071434;28;20497;-74
2021/12/31 00:50:29;;;;;;;76.00;35.90;;;6.80;99.90;;;;;;5071118;28;20032;-74
2021/12/31 00:52:54;;;;;;;68.53;31.40;;;6.90;99.90;;;;;;5069962;28;20525;-74
2021/12/31 00:55:20;;;;;;;71.05;34.20;;;6.90;99.90;;;;;;5071420;28;20366;-73
2021/12/31 00:57:48;;;;;;;61.22;30.38;;;6.90;99.90;;;;;;5071398;28;20454;-74
2021/12/31 01:00:15;;;;;;;60.67;30.05;;;6.90;99.90;;;;;;5070939;28;20016;-74
2021/12/31 01:02:43;;;;;;;49.00;25.42;;;7.00;99.90;;;;;;5070055;28;20568;-74
2021/12/31 01:05:09;;;;;;;58.60;28.23;;;7.00;99.90;;;;;;5070724;28;20039;-74
2021/12/31 01:07:35;;;;;;;51.70;26.70;;;7.00;99.90;;;;;;5070924;28;20518;-74
2021/12/31 01:10:01;;;;;;;45.13;25.23;;;7.00;99.90;;;;;;5070564;28;20048;-74
2021/12/31 01:12:27;;;;;;;56.45;27.17;;;7.00;99.90;;;;;;5071167;28;20081;-74
2021/12/31 01:17:24;;;;;;;46.45;24.65;;;7.10;99.90;;;;;;5071259;28;20547;-74
2021/12/31 01:19:50;;;;;;;44.53;23.63;;;7.10;99.90;;;;;;5071124;28;20017;-74
2021/12/31 01:22:27;;;;;;;40.20;20.08;;;7.10;99.90;;;;;;5071043;28;20447;-74
2021/12/31 01:24:52;;;;;;;40.85;20.98;;;7.10;99.90;;;;;;5071120;28;20024;-74
2021/12/31 01:27:18;;;;;;;34.17;19.48;;;7.00;99.90;;;;;;5069482;28;20043;-74
2021/12/31 01:29:44;;;;;;;37.92;21.50;;;7.10;99.90;;;;;;5070873;28;20021;-74
2021/12/31 01:32:10;;;;;;;34.47;18.50;;;7.10;99.90;;;;;;5070995;28;20371;-74
2021/12/31 01:34:37;;;;;;;39.58;21.35;;;7.10;99.90;;;;;;5070339;28;20030;-74
2021/12/31 01:37:03;;;;;;;38.45;22.10;;;7.10;99.90;;;;;;5070859;28;20049;-74
2021/12/31 01:39:30;;;;;;;35.75;20.65;;;7.10;99.90;;;;;;5070848;28;20017;-74
2021/12/31 01:41:58;;;;;;;37.88;21.50;;;7.10;99.90;;;;;;5069467;28;20482;-74
2021/12/31 01:44:29;;;;;;;40.97;21.02;;;7.10;99.90;;;;;;5070630;28;20029;-74
2021/12/31 01:47:00;;;;;;;44.58;23.48;;;7.10;99.90;;;;;;5070884;28;20036;-74
2021/12/31 01:49:34;;;;;;;51.05;25.23;;;7.10;99.90;;;;;;5070522;28;20032;-74
2021/12/31 01:52:00;;;;;;;56.28;28.08;;;7.10;99.90;;;;;;5069318;28;20035;-74
2021/12/31 01:54:26;;;;;;;61.63;25.10;;;7.10;99.90;;;;;;5070500;28;20025;-74
2021/12/31 01:56:53;;;;;;;56.13;26.65;;;7.10;99.90;;;;;;5069356;28;20489;-74
2021/12/31 01:59:19;;;;;;;57.30;27.40;;;7.10;99.90;;;;;;5069037;28;20377;-74
2021/12/31 02:01:45;;;;;;;54.92;26.90;;;7.10;99.90;;;;;;5070758;28;20021;-74
2021/12/31 02:04:11;;;;;;;50.15;25.98;;;7.10;99.90;;;;;;5069376;28;20462;-74
2021/12/31 02:06:36;;;;;;;48.00;24.40;;;7.10;99.90;;;;;;5070364;28;20033;-74
2021/12/31 02:09:05;;;;;;;52.88;25.80;;;7.10;99.90;;;;;;5069151;28;20016;-74
2021/12/31 02:11:30;;;;;;;47.88;25.83;;;7.10;99.90;;;;;;5070449;28;20035;-74
2021/12/31 02:13:57;;;;;;;48.40;24.25;;;7.10;99.90;;;;;;5068979;28;20390;-74
2021/12/31 02:16:24;;;;;;;42.60;22.92;;;7.20;99.90;;;;;;5070263;28;20024;-74
2021/12/31 02:18:50;;;;;;;53.85;24.70;;;7.20;99.90;;;;;;5069171;28;20055;-74
2021/12/31 02:21:16;;;;;;;45.10;23.20;;;7.10;99.90;;;;;;5069306;28;20025;-74
2021/12/31 02:23:45;;;;;;;46.10;22.60;;;7.10;99.90;;;;;;5073987;28;20029;-74
2021/12/31 02:26:12;;;;;;;51.47;24.73;;;7.20;99.90;;;;;;5072685;28;20119;-74
2021/12/31 02:28:38;;;;;;;42.70;23.13;;;7.20;99.90;;;;;;5074033;28;20056;-74
2021/12/31 02:31:05;;;;;;;45.13;22.15;;;7.20;99.90;;;;;;5073583;28;20489;-74
2021/12/31 02:33:31;;;;;;;45.00;22.92;;;7.20;99.90;;;;;;5072321;28;20073;-74
2021/12/31 02:35:58;;;;;;;50.67;25.27;;;7.20;99.90;;;;;;5073644;28;20048;-74
2021/12/31 02:38:24;;;;;;;53.25;25.40;;;7.20;99.90;;;;;;5072347;28;20024;-74
2021/12/31 02:40:50;;;;;;;52.97;25.20;;;7.20;99.90;;;;;;5072334;28;20028;-74
2021/12/31 02:43:16;;;;;;;53.28;25.77;;;7.20;99.90;;;;;;5073676;28;20025;-74
2021/12/31 02:45:42;;;;;;;43.75;22.88;;;7.30;99.90;;;;;;5072174;28;20040;-74
2021/12/31 02:48:09;;;;;;;50.03;24.48;;;7.20;99.90;;;;;;5072199;28;20389;-74
2021/12/31 02:50:39;;;;;;;53.70;25.38;;;7.30;99.90;;;;;;5073591;28;20420;-74
2021/12/31 02:53:07;;;;;;;54.95;25.17;;;7.30;99.90;;;;;;5072248;28;20104;-74
2021/12/31 02:55:36;;;;;;;53.15;26.38;;;7.30;99.90;;;;;;5071837;28;20108;-74
2021/12/31 02:58:03;;;;;;;61.25;26.88;;;7.30;99.90;;;;;;5073402;28;20459;-74
2021/12/31 03:00:30;;;;;;;66.05;26.67;;;7.30;99.90;;;;;;5073254;28;20028;-74
2021/12/31 03:02:58;;;;;;;64.80;27.40;;;7.30;99.90;;;;;;5073206;28;20031;-74
2021/12/31 03:05:26;;;;;;;75.38;30.52;;;7.30;99.90;;;;;;5073044;28;20016;-74
2021/12/31 03:07:53;;;;;;;63.63;27.95;;;7.30;99.90;;;;;;5073230;28;20059;-74
2021/12/31 03:10:21;;;;;;;78.65;30.80;;;7.40;99.90;;;;;;5071724;28;20025;-74
2021/12/31 03:12:49;;;;;;;58.22;26.63;;;7.40;99.90;;;;;;5070404;28;20104;-74
2021/12/31 03:15:15;;;;;;;57.33;27.20;;;7.40;99.90;;;;;;5064329;28;20478;-74
2021/12/31 03:17:41;;;;;;;63.80;29.73;;;7.40;99.90;;;;;;5073503;28;20021;-74
2021/12/31 03:20:12;;;;;;;58.42;25.35;;;7.40;99.90;;;;;;5060745;28;20569;-74
2021/12/31 03:22:42;;;;;;;51.78;25.23;;;7.30;99.90;;;;;;5051646;28;20115;-74
2021/12/31 03:25:09;;;;;;;53.42;27.00;;;7.40;99.90;;;;;;5052962;28;20471;-74
2021/12/31 03:27:35;;;;;;;59.47;26.13;;;7.40;99.90;;;;;;5051665;28;20391;-74
2021/12/31 03:30:01;;;;;;;54.60;24.92;;;7.40;99.90;;;;;;5051457;28;20087;-74
2021/12/31 03:32:27;;;;;;;55.42;25.95;;;7.40;99.90;;;;;;5057122;28;20428;-74
2021/12/31 03:34:53;;;;;;;50.15;25.20;;;7.40;99.90;;;;;;5071279;28;20115;-73
2021/12/31 03:37:18;;;;;;;45.25;23.27;;;7.40;99.90;;;;;;5072653;28;20021;-74
2021/12/31 03:39:44;;;;;;;50.80;25.48;;;7.40;99.90;;;;;;5071238;28;20021;-74
2021/12/31 03:42:14;;;;;;;43.42;22.30;;;7.40;99.90;;;;;;5072923;28;20048;-74
2021/12/31 03:44:40;;;;;;;52.30;24.15;;;7.40;99.90;;;;;;5070861;28;20111;-74
2021/12/31 03:47:06;;;;;;;48.45;22.02;;;7.40;99.90;;;;;;5072177;28;20029;-74
2021/12/31 03:49:32;;;;;;;46.15;21.40;;;7.40;99.90;;;;;;5070916;28;20375;-74
2021/12/31 03:51:57;;;;;;;41.13;21.73;;;7.40;99.90;;;;;;5070818;28;20039;-74
2021/12/31 03:54:23;;;;;;;40.88;21.83;;;7.40;99.90;;;;;;5066353;28;20106;-74
2021/12/31 03:56:48;;;;;;;48.40;24.13;;;7.40;99.90;;;;;;5052384;28;20033;-74
2021/12/31 03:59:14;;;;;;;36.33;19.05;;;7.40;99.90;;;;;;5052324;28;20811;-74
2021/12/31 04:01:40;;;;;;;27.33;15.77;;;7.40;99.90;;;;;;5052307;28;20021;-74
2021/12/31 04:04:07;;;;;;;30.30;16.83;;;7.50;99.90;;;;;;5052494;28;20027;-74
2021/12/31 04:06:34;;;;;;;27.60;16.23;;;7.50;99.90;;;;;;5050711;28;20025;-74
2021/12/31 04:08:59;;;;;;;31.15;16.83;;;7.50;99.90;;;;;;5052005;28;20047;-73
2021/12/31 04:11:25;;;;;;;44.05;22.42;;;7.50;99.90;;;;;;5051996;28;20025;-74
2021/12/31 04:13:51;;;;;;;33.63;17.63;;;7.50;99.90;;;;;;5052046;28;20457;-74
2021/12/31 04:16:17;;;;;;;32.92;17.85;;;7.50;99.90;;;;;;5050475;28;20013;-74
2021/12/31 04:18:42;;;;;;;45.40;23.90;;;7.50;99.90;;;;;;5051743;28;20033;-74
2021/12/31 04:21:08;;;;;;;39.67;21.60;;;7.50;99.90;;;;;;5051920;28;20558;-74
2021/12/31 04:23:47;;;;;;;50.15;22.15;;;7.50;99.90;;;;;;5051782;28;20060;-74
2021/12/31 04:26:13;;;;;;;39.13;19.05;;;7.50;99.90;;;;;;5051601;28;20029;-74
2021/12/31 04:28:39;;;;;;;67.38;24.92;;;7.50;99.90;;;;;;5051847;28;20029;-74
2021/12/31 04:31:04;;;;;;;50.67;23.98;;;7.50;99.90;;;;;;5051605;28;20485;-74
2021/12/31 04:33:30;;;;;;;60.78;26.55;;;7.40;99.90;;;;;;5071630;28;20545;-74
2021/12/31 04:35:56;;;;;;;87.57;34.47;;;7.40;99.90;;;;;;5071276;28;20478;-74
2021/12/31 04:38:21;;;;;;;101.45;33.67;;;7.40;99.90;;;;;;5071457;28;20028;-74
2021/12/31 04:40:47;;;;;;;190.63;43.28;;;7.40;99.90;;;;;;5070565;28;20028;-74
2021/12/31 04:43:12;;;;;;;495.05;77.00;;;7.40;99.90;;;;;;5071203;28;20020;-74
2021/12/31 04:45:38;;;;;;;414.58;61.70;;;7.30;99.90;;;;;;5071220;28;20041;-74
2021/12/31 04:48:04;;;;;;;447.63;63.13;;;7.20;99.90;;;;;;5070198;28;20029;-74
2021/12/31 04:50:30;;;;;;;465.00;61.75;;;7.10;99.90;;;;;;5069949;28;20107;-74
2021/12/31 04:52:56;;;;;;;506.45;68.78;;;7.00;99.90;;;;;;5070139;28;20111;-74
2021/12/31 04:55:22;;;;;;;418.77;56.25;;;7.00;99.90;;;;;;5071152;28;20521;-74
2021/12/31 04:57:49;;;;;;;542.92;67.45;;;6.90;99.90;;;;;;5070031;28;20070;-74
2021/12/31 05:00:15;;;;;;;310.42;40.30;;;6.80;99.90;;;;;;5071133;28;20013;-74
2021/12/31 05:02:41;;;;;;;413.70;56.88;;;6.80;99.90;;;;;;5069836;28;20111;-74
2021/12/31 05:05:07;;;;;;;338.38;48.83;;;6.80;99.90;;;;;;5071012;28;20514;-74
2021/12/31 05:07:33;;;;;;;289.55;42.05;;;6.90;99.90;;;;;;5070888;28;20082;-74
2021/12/31 05:09:58;;;;;;;232.30;37.25;;;6.80;99.90;;;;;;5070926;28;20452;-73
2021/12/31 05:12:28;;;;;;;183.07;34.42;;;6.80;99.90;;;;;;5069664;28;20020;-75
2021/12/31 05:14:54;;;;;;;266.30;42.40;;;6.80;99.90;;;;;;5071386;28;20024;-74
2021/12/31 05:17:20;;;;;;;265.45;42.75;;;6.80;99.90;;;;;;5069712;28;20016;-74
2021/12/31 05:19:46;;;;;;;168.88;31.42;;;6.70;99.90;;;;;;5069556;28;20378;-74
2021/12/31 05:22:12;;;;;;;279.10;45.35;;;6.80;99.90;;;;;;5069256;28;20012;-74
2021/12/31 05:24:38;;;;;;;131.27;23.52;;;6.80;99.90;;;;;;5069890;28;20020;-74
2021/12/31 05:27:05;;;;;;;58.10;17.92;;;6.70;99.90;;;;;;5071029;28;20032;-75
2021/12/31 05:29:30;;;;;;;237.27;36.63;;;6.70;99.90;;;;;;5070469;28;20032;-74
2021/12/31 05:31:56;;;;;;;151.63;28.40;;;6.70;99.90;;;;;;5070802;28;20546;-74
2021/12/31 05:34:22;;;;;;;74.40;18.95;;;6.70;99.90;;;;;;5069324;28;20031;-74
2021/12/31 05:36:48;;;;;;;82.65;22.17;;;6.70;99.90;;;;;;5070493;28;20035;-74
2021/12/31 05:39:14;;;;;;;70.30;19.65;;;6.70;99.90;;;;;;5070880;28;20020;-74
2021/12/31 05:41:40;;;;;;;71.68;20.73;;;6.70;99.90;;;;;;5070788;28;20470;-74
2021/12/31 05:44:06;;;;;;;41.50;16.17;;;6.70;99.90;;;;;;5069601;28;20363;-73
2021/12/31 05:46:33;;;;;;;117.43;29.20;;;6.80;99.90;;;;;;5070606;28;20028;-74
2021/12/31 05:48:58;;;;;;;59.30;21.40;;;6.80;99.90;;;;;;5070665;28;20079;-74
2021/12/31 05:51:26;;;;;;;56.42;20.83;;;6.80;99.90;;;;;;5070060;28;20427;-74
2021/12/31 05:53:52;;;;;;;83.57;26.90;;;6.80;99.90;;;;;;5069492;28;20052;-74
2021/12/31 05:56:18;;;;;;;55.58;22.75;;;6.80;99.90;;;;;;5071590;28;20170;-74
2021/12/31 05:58:43;;;;;;;50.70;19.67;;;6.80;99.90;;;;;;5073684;28;20147;-74
2021/12/31 06:01:09;;;;;;;44.50;20.40;;;6.80;99.90;;;;;;5072475;28;20021;-73
2021/12/31 06:03:35;;;;;;;71.65;27.92;;;6.90;99.90;;;;;;5072612;28;20021;-74
2021/12/31 06:06:00;;;;;;;84.75;27.23;;;6.90;99.90;;;;;;5072861;28;20028;-73
2021/12/31 06:08:26;;;;;;;125.95;34.15;;;6.90;99.90;;;;;;5072679;28;20028;-74
2021/12/31 06:10:52;;;;;;;65.38;26.00;;;6.90;99.90;;;;;;5072588;28;20025;-74
2021/12/31 06:13:18;;;;;;;216.02;47.22;;;6.90;99.90;;;;;;5072565;28;20435;-74
2021/12/31 06:15:44;;;;;;;193.68;47.17;;;7.00;99.90;;;;;;5072782;28;20024;-74
2021/12/31 06:18:10;;;;;;;150.88;39.67;;;6.90;99.90;;;;;;5074240;28;20078;-74
2021/12/31 06:20:36;;;;;;;248.60;61.75;;;6.90;99.90;;;;;;5072672;28;20065;-74
2021/12/31 06:23:02;;;;;;;281.20;61.60;;;6.90;99.90;;;;;;5072909;28;20020;-74
2021/12/31 06:25:28;;;;;;;239.48;48.38;;;6.90;99.90;;;;;;5073898;28;20028;-74
2021/12/31 06:27:53;;;;;;;115.97;36.30;;;6.90;99.90;;;;;;5074127;28;20033;-74
2021/12/31 06:30:20;;;;;;;152.18;44.38;;;7.00;99.90;;;;;;5073868;28;20083;-74
2021/12/31 06:32:45;;;;;;;87.97;39.97;;;6.90;99.90;;;;;;5073939;28;20028;-74
2021/12/31 06:35:11;;;;;;;89.03;39.78;;;7.00;99.90;;;;;;5073681;28;20078;-74
2021/12/31 06:37:37;;;;;;;62.47;30.42;;;7.00;99.90;;;;;;5073912;28;20032;-74
2021/12/31 06:40:06;;;;;;;42.65;23.17;;;7.10;99.90;;;;;;5073738;28;20020;-74
2021/12/31 06:42:33;;;;;;;35.28;17.95;;;7.20;99.90;;;;;;5072366;28;20021;-74
2021/12/31 06:44:59;;;;;;;102.82;48.03;;;7.40;99.90;;;;;;5071883;28;20036;-74
2021/12/31 06:47:25;;;;;;;129.82;68.47;;;7.50;99.90;;;;;;5066031;28;20032;-74
2021/12/31 06:49:50;;;;;;;64.25;24.92;;;7.60;99.90;;;;;;5072120;28;20055;-74
2021/12/31 06:52:16;;;;;;;32.78;17.15;;;7.70;99.90;;;;;;5072102;28;20032;-74
2021/12/31 06:54:41;;;;;;;37.55;24.23;;;7.80;99.90;;;;;;5072974;28;20558;-74
2021/12/31 06:57:07;;;;;;;41.95;21.50;;;7.80;99.90;;;;;;5073474;28;20028;-74
2021/12/31 06:59:32;;;;;;;40.58;19.25;;;7.80;99.90;;;;;;5072354;28;20375;-74
2021/12/31 07:01:58;;;;;;;50.83;23.52;;;7.80;99.90;;;;;;5072295;28;20029;-75
2021/12/31 07:04:24;;;;;;;60.70;32.20;;;7.90;99.90;;;;;;5072111;28;20021;-74
2021/12/31 07:06:49;;;;;;;89.15;51.00;;;7.90;99.90;;;;;;5071257;28;20033;-74
2021/12/31 07:09:15;;;;;;;107.82;40.40;;;7.90;99.90;;;;;;5071949;28;20163;-74
2021/12/31 07:11:41;;;;;;;120.82;34.25;;;7.80;99.90;;;;;;5073323;28;20025;-75
2021/12/31 07:14:06;;;;;;;222.73;46.63;;;7.70;99.90;;;;;;5073235;28;20101;-74
2021/12/31 07:16:32;;;;;;;77.60;28.15;;;7.60;99.90;;;;;;5073127;28;20052;-75
2021/12/31 07:18:58;;;;;;;120.07;61.08;;;7.50;99.90;;;;;;5073127;28;20025;-74
2021/12/31 07:21:24;;;;;;;66.25;29.27;;;7.40;99.90;;;;;;5073131;28;20036;-74
2021/12/31 07:23:49;;;;;;;63.38;27.02;;;7.30;99.90;;;;;;5073118;28;20031;-74
2021/12/31 07:26:15;;;;;;;90.68;33.35;;;7.30;99.90;;;;;;5072937;28;20043;-74
2021/12/31 07:28:40;;;;;;;80.88;36.83;;;7.30;99.90;;;;;;5072901;28;20036;-74
2021/12/31 07:31:11;;;;;;;89.88;36.10;;;7.30;99.90;;;;;;5072871;28;20128;-74
2021/12/31 07:33:37;;;;;;;79.35;36.03;;;7.30;99.90;;;;;;5072953;28;20024;-74
2021/12/31 07:36:03;;;;;;;84.55;36.33;;;7.40;99.90;;;;;;5071460;28;20371;-74
2021/12/31 07:38:33;;;;;;;114.78;43.08;;;7.40;99.90;;;;;;5072747;28;20375;-74
2021/12/31 07:40:59;;;;;;;257.13;106.90;;;7.40;99.90;;;;;;5072668;28;20032;-74
2021/12/31 07:43:24;;;;;;;164.90;54.33;;;7.40;99.90;;;;;;5072694;28;20134;-74
2021/12/31 07:45:51;;;;;;;118.50;41.10;;;7.50;99.90;;;;;;5070101;28;20032;-75
2021/12/31 07:48:17;;;;;;;90.20;36.53;;;7.40;99.90;;;;;;5051339;28;20036;-74
2021/12/31 07:50:43;;;;;;;67.93;31.67;;;7.50;99.90;;;;;;5052483;28;20036;-74
2021/12/31 07:53:09;;;;;;;67.95;29.90;;;7.50;99.90;;;;;;5052523;28;20391;-75
2021/12/31 07:55:35;;;;;;;77.22;34.70;;;7.60;99.90;;;;;;5052433;28;20060;-74
2021/12/31 07:58:03;;;;;;;56.10;34.28;;;7.70;99.90;;;;;;5052499;28;20033;-75
2021/12/31 08:00:29;;;;;;;73.32;41.15;;;7.80;99.90;;;;;;5066096;28;20059;-74
2021/12/31 08:02:55;;;;;;;61.20;30.50;;;7.80;99.90;;;;;;5065215;28;20048;-74
2021/12/31 08:05:25;;;;;;;54.13;30.85;;;7.90;99.90;;;;;;5072127;28;20016;-74
2021/12/31 08:07:51;;;;;;;73.97;39.72;;;7.90;99.90;;;;;;5070772;28;20028;-75
2021/12/31 08:10:17;;;;;;;67.10;38.00;;;8.00;99.90;;;;;;5070661;28;20028;-74
2021/12/31 08:12:43;;;;;;;50.58;27.98;;;8.00;99.90;;;;;;5072075;28;20283;-74
2021/12/31 08:15:09;;;;;;;48.08;28.92;;;8.00;99.90;;;;;;5071984;28;20031;-74
2021/12/31 08:17:35;;;;;;;42.85;25.27;;;8.00;99.90;;;;;;5070632;28;20069;-74
2021/12/31 08:20:00;;;;;;;42.42;24.90;;;8.00;99.90;;;;;;5071860;28;20032;-75
2021/12/31 08:22:26;;;;;;;75.15;41.78;;;8.10;99.90;;;;;;5071913;28;20024;-75
2021/12/31 08:24:52;;;;;;;53.63;27.45;;;8.10;99.90;;;;;;5072465;28;20381;-74
2021/12/31 08:27:18;;;;;;;71.05;37.10;;;8.10;99.90;;;;;;5071924;28;20068;-74
2021/12/31 08:29:43;;;;;;;44.97;22.42;;;8.10;99.90;;;;;;5069045;28;20009;-74
2021/12/31 08:32:09;;;;;;;46.97;24.52;;;8.10;99.90;;;;;;5061590;28;20028;-75
2021/12/31 08:34:36;;;;;;;69.32;31.77;;;8.10;99.90;;;;;;5060517;28;20032;-74
2021/12/31 08:37:02;;;;;;;56.92;27.80;;;8.10;99.90;;;;;;5060789;28;20013;-74
2021/12/31 08:39:27;;;;;;;93.07;42.15;;;8.10;99.90;;;;;;5060705;28;20111;-74
2021/12/31 08:41:53;;;;;;;86.43;36.90;;;8.10;99.90;;;;;;5060656;28;20045;-74
2021/12/31 08:44:19;;;;;;;78.07;33.42;;;8.10;99.90;;;;;;5061203;28;20063;-74
2021/12/31 08:46:45;;;;;;;64.70;27.10;;;8.10;99.90;;;;;;5069016;28;20056;-74
2021/12/31 08:49:12;;;;;;;172.05;86.53;;;8.00;99.90;;;;;;5070615;28;20140;-74
2021/12/31 08:51:38;;;;;;;108.60;50.53;;;8.00;99.90;;;;;;5070169;28;20021;-75
2021/12/31 08:54:04;;;;;;;92.32;40.95;;;8.10;99.90;;;;;;5070161;28;20162;-74
2021/12/31 08:56:30;;;;;;;80.28;40.45;;;8.00;99.90;;;;;;5071409;28;20024;-74
2021/12/31 08:58:55;;;;;;;62.50;27.38;;;8.10;99.90;;;;;;5065236;28;20033;-74
2021/12/31 09:01:21;;;;;;;98.07;40.60;;;8.10;99.90;;;;;;5065320;28;20444;-74
2021/12/31 09:03:46;;;;;;;45.45;22.02;;;8.10;99.90;;;;;;5074272;28;20036;-74
2021/12/31 09:06:13;;;;;;;59.28;27.95;;;8.10;99.90;;;;;;5081276;28;20048;-74
2021/12/31 09:08:39;;;;;;;60.63;32.63;;;8.10;99.90;;;;;;5072403;28;20048;-75
2021/12/31 09:11:05;;;;;;;72.88;39.88;;;8.10;99.90;;;;;;5069060;28;20083;-75
2021/12/31 09:13:32;;;;;;;135.90;52.95;;;8.10;99.90;;;;;;5073242;28;20028;-74
2021/12/31 09:15:57;;;;;;;72.20;32.97;;;8.10;99.90;;;;;;5073592;28;20127;-74
2021/12/31 09:18:23;;;;;;;76.05;35.28;;;8.10;99.90;;;;;;5069854;28;20111;-74
2021/12/31 09:20:49;;;;;;;63.03;33.15;;;8.10;99.90;;;;;;5070304;28;20049;-74
2021/12/31 09:23:16;;;;;;;61.85;32.22;;;8.10;99.90;;;;;;5070190;28;20389;-74
2021/12/31 09:25:42;;;;;;;53.92;29.23;;;8.10;99.90;;;;;;5070256;28;20064;-74
2021/12/31 09:28:07;;;;;;;45.92;25.15;;;8.10;99.90;;;;;;5070381;28;20037;-74
2021/12/31 09:30:33;;;;;;;47.88;25.33;;;8.10;99.90;;;;;;5069805;28;20029;-75
2021/12/31 09:32:59;;;;;;;46.65;26.13;;;8.20;99.90;;;;;;5074542;28;20032;-75
2021/12/31 09:35:24;;;;;;;44.58;23.75;;;8.20;99.90;;;;;;5070239;28;20051;-75
2021/12/31 09:37:50;;;;;;;46.72;25.35;;;8.20;99.90;;;;;;5074866;28;20036;-74
2021/12/31 09:40:18;;;;;;;52.92;27.73;;;8.20;99.90;;;;;;5073281;28;20029;-74
2021/12/31 09:43:08;;;;;;;51.88;29.00;;;8.20;99.90;;;;;;5072922;28;20035;-74
2021/12/31 09:45:36;;;;;;;71.68;35.55;;;8.10;99.90;;;;;;5083862;28;20044;-74
2021/12/31 09:48:05;;;;;;;61.78;34.30;;;8.20;99.90;;;;;;5094427;28;20040;-75
2021/12/31 09:50:31;;;;;;;57.90;32.00;;;8.10;99.90;;;;;;5094070;28;20531;-75
2021/12/31 09:52:57;;;;;;;66.68;35.47;;;8.20;99.90;;;;;;5094415;28;20028;-74
2021/12/31 09:55:41;;;;;;;69.97;37.95;;;8.20;99.90;;;;;;5093684;28;20477;-74
2021/12/31 09:58:08;;;;;;;80.43;40.45;;;8.10;99.90;;;;;;5072085;28;20021;-74
2021/12/31 10:00:34;;;;;;;91.07;47.28;;;8.20;99.90;;;;;;5071274;28;20056;-74
2021/12/31 10:03:17;;;;;;;103.05;50.03;;;8.10;99.90;;;;;;5074173;28;20020;-74
2021/12/31 10:05:44;;;;;;;105.65;49.63;;;8.10;99.90;;;;;;5073492;28;20033;-74
2021/12/31 10:08:28;;;;;;;99.65;46.95;;;8.10;99.90;;;;;;5072420;28;20028;-74
2021/12/31 10:11:13;;;;;;;98.53;47.83;;;8.10;99.90;;;;;;5073751;28;20486;-75
2021/12/31 10:13:44;;;;;;;82.75;41.30;;;8.10;99.90;;;;;;5072103;28;20402;-75
2021/12/31 10:16:20;;;;;;;98.07;46.67;;;8.10;99.90;;;;;;5089222;28;20112;-74
2021/12/31 10:18:47;;;;;;;89.13;46.30;;;8.10;99.90;;;;;;5092664;28;20072;-74
2021/12/31 10:21:13;;;;;;;93.20;47.00;;;8.10;99.90;;;;;;5069379;28;20044;-74
2021/12/31 10:23:40;;;;;;;91.63;47.67;;;8.10;99.90;;;;;;5072375;28;20031;-74
2021/12/31 10:26:11;;;;;;;82.45;43.83;;;8.10;99.90;;;;;;5072061;28;20505;-75
2021/12/31 10:28:50;;;;;;;90.43;45.85;;;8.10;99.90;;;;;;5070898;28;20255;-78
2021/12/31 10:31:15;;;;;;;83.13;43.05;;;8.10;99.90;;;;;;5072066;28;20020;-78
2021/12/31 10:33:46;;;;;;;76.97;42.00;;;8.20;99.90;;;;;;5072444;28;20021;-78
2021/12/31 10:36:35;;;;;;;84.13;45.05;;;8.20;99.90;;;;;;5071251;28;20013;-78
2021/12/31 10:39:16;;;;;;;89.47;47.05;;;8.30;99.90;;;;;;5073655;28;20099;-78
2021/12/31 10:41:42;;;;;;;88.80;47.33;;;8.30;99.90;;;;;;5071459;28;20056;-78
2021/12/31 10:44:07;;;;;;;86.25;46.95;;;8.40;99.90;;;;;;5072101;28;20028;-78
2021/12/31 10:46:33;;;;;;;87.18;45.53;;;8.40;99.90;;;;;;5072330;28;20064;-78
2021/12/31 10:49:06;;;;;;;81.30;44.75;;;8.40;99.90;;;;;;5071940;28;20021;-78
2021/12/31 10:51:39;;;;;;;80.13;41.03;;;8.40;99.90;;;;;;5072608;28;20513;-77
2021/12/31 10:54:31;;;;;;;79.47;42.50;;;8.40;99.90;;;;;;5069759;28;20505;-78
2021/12/31 10:56:58;;;;;;;73.55;39.63;;;8.40;99.90;;;;;;5071234;28;20048;-78
2021/12/31 10:59:23;;;;;;;77.38;41.83;;;8.40;99.90;;;;;;5070366;28;20047;-78
2021/12/31 11:01:49;;;;;;;77.57;41.95;;;8.40;99.90;;;;;;5070606;28;20060;-78
2021/12/31 11:04:18;;;;;;;77.43;41.47;;;8.40;99.90;;;;;;5070382;28;20484;-77
2021/12/31 11:06:44;;;;;;;84.60;45.08;;;8.40;99.90;;;;;;5072655;28;20028;-78
2021/12/31 11:09:13;;;;;;;78.47;44.08;;;8.40;99.90;;;;;;5071966;28;20021;-78
2021/12/31 11:11:41;;;;;;;76.00;39.40;;;8.40;99.90;;;;;;5071948;28;20028;-78
2021/12/31 11:14:07;;;;;;;78.15;43.00;;;8.40;99.90;;;;;;5073263;28;20542;-78
2021/12/31 11:16:38;;;;;;;85.75;44.78;;;8.40;99.90;;;;;;5071827;28;20150;-78
2021/12/31 11:19:04;;;;;;;77.38;38.88;;;8.40;99.90;;;;;;5057087;28;20021;-78
2021/12/31 11:21:30;;;;;;;78.25;41.60;;;8.40;99.90;;;;;;5057479;28;20375;-78
2021/12/31 11:24:15;;;;;;;65.70;37.80;;;8.40;99.90;;;;;;5056485;28;20613;-78
2021/12/31 11:26:41;;;;;;;78.45;39.58;;;8.40;99.90;;;;;;5058713;28;20029;-78
2021/12/31 11:29:15;;;;;;;75.85;38.28;;;8.40;99.90;;;;;;5053802;28;20025;-78
2021/12/31 11:31:42;;;;;;;71.65;38.28;;;8.40;99.90;;;;;;5058571;28;20022;-78
2021/12/31 11:34:12;;;;;;;72.10;40.55;;;8.50;99.90;;;;;;5055575;28;20066;-78
2021/12/31 11:36:40;;;;;;;78.05;40.47;;;8.50;99.90;;;;;;5058000;28;20024;-78
2021/12/31 11:39:15;;;;;;;78.35;40.63;;;8.50;99.90;;;;;;5054352;28;20048;-78
2021/12/31 11:41:42;;;;;;;77.53;40.95;;;8.60;99.90;;;;;;5052647;28;20097;-78
2021/12/31 11:44:09;;;;;;;70.90;35.65;;;8.60;99.90;;;;;;5052947;28;20035;-78
2021/12/31 11:46:47;;;;;;;60.30;32.00;;;8.60;99.90;;;;;;5054684;28;20656;-79
2021/12/31 11:49:25;;;;;;;67.38;34.55;;;8.70;99.90;;;;;;5055462;28;20497;-78
2021/12/31 11:52:08;;;;;;;68.20;34.83;;;8.80;99.90;;;;;;5056493;28;20013;-78
2021/12/31 11:54:37;;;;;;;63.85;34.90;;;8.80;99.90;;;;;;5056615;28;20096;-78
2021/12/31 11:57:07;;;;;;;60.00;30.67;;;8.90;99.90;;;;;;5056016;28;20040;-78
2021/12/31 11:59:42;;;;;;;53.78;28.50;;;8.90;99.90;;;;;;5055031;28;20077;-78
2021/12/31 12:02:16;;;;;;;53.42;28.70;;;8.90;99.90;;;;;;5057909;28;20482;-78
2021/12/31 12:04:45;;;;;;;55.55;27.25;;;8.90;99.90;;;;;;5057641;28;20021;-78
2021/12/31 12:07:31;;;;;;;47.63;24.55;;;9.00;99.90;;;;;;5063052;28;20124;-78
2021/12/31 12:09:57;;;;;;;41.45;24.50;;;9.10;99.90;;;;;;5057292;28;20378;-78
2021/12/31 12:12:33;;;;;;;39.38;21.77;;;9.10;99.90;;;;;;5059777;28;20101;-78
2021/12/31 12:15:21;;;;;;;39.25;22.25;;;9.10;99.90;;;;;;5060676;28;20048;-78
2021/12/31 12:17:47;;;;;;;35.65;20.52;;;9.10;99.90;;;;;;5057425;28;20033;-78
2021/12/31 12:20:22;;;;;;;35.47;20.58;;;9.20;99.90;;;;;;5054454;28;20580;-78
2021/12/31 12:22:54;;;;;;;30.23;18.67;;;9.30;99.90;;;;;;5057345;28;20382;-78
2021/12/31 12:25:20;;;;;;;42.25;21.90;;;9.30;99.90;;;;;;5054900;28;20013;-78
2021/12/31 12:27:48;;;;;;;35.22;19.88;;;9.30;99.90;;;;;;5052187;28;20040;-78
2021/12/31 12:30:15;;;;;;;33.35;19.52;;;9.30;99.90;;;;;;5052025;28;20055;-78
2021/12/31 12:35:12;;;;;;;72.28;34.05;;;9.30;99.90;;;;;;5053616;28;20021;-78
2021/12/31 12:37:37;;;;;;;68.38;31.92;;;9.30;99.90;;;;;;5057755;28;20100;-78
2021/12/31 12:40:04;;;;;;;66.43;31.23;;;9.30;99.90;;;;;;5058296;28;20095;-78
2021/12/31 12:42:30;;;;;;;71.50;34.92;;;9.20;99.90;;;;;;5052687;28;20120;-78